Portada
METAR-TAF:

METAR-TAF

Aeroports :

Hurlburt Field

Mary Esther, Florida, Estats Units d'Amèrica

latitud: 30-25N, longitud: 086-41W, altitud: 12 m

Observació

L'informe es va fer fa 1 hora i 0 minuts, a les 11:56 UTC
Vent calma
Temperatura 0°C
Humitat 86%
Pressió 1026 hPa
Visibilitat: 16.1 km
Cel clar

METAR: KHRT 191156Z AUTO 00000KT 10SM CLR 00/M02 A3031 RMK AO2 SLP266 T00001024 10015 21002 52017 $

Hora: 06:56 (12:56 UTC)

Pronòstic

L'informe es va fer fa 2 hores i 56 minuts, a les 10:00 UTC
Pronòstic vàlid del 19 a les 10 UTC al 20 a les 16 UTC
Vent 9 kt del Sud/Sud-Oest
Visibilitat: 1916 m
Cel clar
Evolucionant progressivament
l' 19 a les 21 UTC al 19 a les 22 UTC
Vent 9 kt del Sud/Sud-Oest
Visibilitat 10 km o més
Escasses núvols a una alçada de 15000 ft

TAF: KHRT 191000Z 1910/2016 33006KT 9999 SKC QNH3026INS WND 21009KT AFT 1916 BECMG 1921/1922 21009KT 9999 FEW150 QNH3030INS TX18/1920Z TN00/1910Z

Observacions i pronòstics meteorològics de més de 4000 aeroports (METAR i TAF).

Les estacions disponibles són els punts grocs i vermells al mapa.

Posi el ratolí al punt desitjat per veure el nom de l'estació.

Feu clic per veure les observacions i els pronòstics meteorològics.

Per canviar el mapa: feu clic els botons verds amb una creu de color negre per apropar; al botó verd amb un guió per allunyar la imatge; o en les fletxes verdes per a mapes adjacents.


METAR-TAF: